sensor_id;sensor_type;location;lat;lon;timestamp;pressure;altitude;pressure_sealevel;temperature;humidity
82418;BME280;72059;53.734;10.260;2023-08-17T00:02:07;101743.13;;;16.60;75.86
82418;BME280;72059;53.734;10.260;2023-08-17T00:04:34;101736.91;;;16.55;76.14
82418;BME280;72059;53.734;10.260;2023-08-17T00:07:02;101736.70;;;16.47;76.45
82418;BME280;72059;53.734;10.260;2023-08-17T00:09:29;101742.21;;;16.40;76.84
82418;BME280;72059;53.734;10.260;2023-08-17T00:11:57;101745.06;;;16.32;77.17
82418;BME280;72059;53.734;10.260;2023-08-17T00:14:24;101743.98;;;16.25;77.54
82418;BME280;72059;53.734;10.260;2023-08-17T00:16:52;101746.06;;;16.21;77.80
82418;BME280;72059;53.734;10.260;2023-08-17T00:19:19;101750.34;;;16.17;77.96
82418;BME280;72059;53.734;10.260;2023-08-17T00:21:47;101745.87;;;16.13;78.26
82418;BME280;72059;53.734;10.260;2023-08-17T00:24:14;101740.56;;;16.10;78.38
82418;BME280;72059;53.734;10.260;2023-08-17T00:26:41;101744.88;;;16.08;78.50
82418;BME280;72059;53.734;10.260;2023-08-17T00:29:09;101739.58;;;16.05;78.67
82418;BME280;72059;53.734;10.260;2023-08-17T00:31:36;101736.02;;;16.03;78.78
82418;BME280;72059;53.734;10.260;2023-08-17T00:34:04;101738.53;;;15.98;78.83
82418;BME280;72059;53.734;10.260;2023-08-17T00:36:31;101737.92;;;15.94;79.03
82418;BME280;72059;53.734;10.260;2023-08-17T00:38:59;101741.92;;;15.96;79.09
82418;BME280;72059;53.734;10.260;2023-08-17T00:41:26;101743.31;;;15.99;79.01
82418;BME280;72059;53.734;10.260;2023-08-17T00:43:54;101741.70;;;16.04;78.89
82418;BME280;72059;53.734;10.260;2023-08-17T00:46:22;101740.52;;;16.09;78.81
82418;BME280;72059;53.734;10.260;2023-08-17T00:48:50;101729.31;;;16.13;78.74
82418;BME280;72059;53.734;10.260;2023-08-17T00:51:18;101734.21;;;16.16;78.62
82418;BME280;72059;53.734;10.260;2023-08-17T00:53:46;101728.14;;;16.17;78.62
82418;BME280;72059;53.734;10.260;2023-08-17T00:56:14;101726.83;;;16.17;78.60
82418;BME280;72059;53.734;10.260;2023-08-17T00:58:42;101725.03;;;16.15;78.77
82418;BME280;72059;53.734;10.260;2023-08-17T01:01:10;101715.89;;;16.15;78.80
82418;BME280;72059;53.734;10.260;2023-08-17T01:03:40;101715.84;;;16.13;78.84
82418;BME280;72059;53.734;10.260;2023-08-17T01:06:08;101700.98;;;16.11;78.94
82418;BME280;72059;53.734;10.260;2023-08-17T01:08:36;101699.55;;;16.06;79.11
82418;BME280;72059;53.734;10.260;2023-08-17T01:13:44;101701.94;;;15.97;79.41
82418;BME280;72059;53.734;10.260;2023-08-17T01:16:14;101704.83;;;15.93;79.56
82418;BME280;72059;53.734;10.260;2023-08-17T01:18:42;101704.74;;;15.90;79.69
82418;BME280;72059;53.734;10.260;2023-08-17T01:21:13;101696.87;;;15.88;79.83
82418;BME280;72059;53.734;10.260;2023-08-17T01:23:44;101689.52;;;15.89;79.77
82418;BME280;72059;53.734;10.260;2023-08-17T01:26:11;101692.17;;;15.91;79.72
82418;BME280;72059;53.734;10.260;2023-08-17T01:28:40;101688.71;;;15.92;79.68
82418;BME280;72059;53.734;10.260;2023-08-17T01:31:25;101678.39;;;15.95;79.31
82418;BME280;72059;53.734;10.260;2023-08-17T01:33:56;101674.85;;;15.94;79.25
82418;BME280;72059;53.734;10.260;2023-08-17T01:36:26;101666.93;;;15.91;79.26
82418;BME280;72059;53.734;10.260;2023-08-17T01:38:56;101665.62;;;15.91;79.27
82418;BME280;72059;53.734;10.260;2023-08-17T01:41:25;101670.89;;;15.93;79.11
82418;BME280;72059;53.734;10.260;2023-08-17T01:43:53;101673.81;;;15.88;79.19
82418;BME280;72059;53.734;10.260;2023-08-17T01:46:22;101682.91;;;15.86;79.29
82418;BME280;72059;53.734;10.260;2023-08-17T01:48:49;101688.13;;;15.86;79.44
82418;BME280;72059;53.734;10.260;2023-08-17T01:51:18;101684.58;;;15.84;79.47
82418;BME280;72059;53.734;10.260;2023-08-17T01:53:46;101687.72;;;15.87;79.57
82418;BME280;72059;53.734;10.260;2023-08-17T01:56:13;101688.22;;;15.89;79.60
82418;BME280;72059;53.734;10.260;2023-08-17T01:58:41;101693.98;;;15.93;79.43
82418;BME280;72059;53.734;10.260;2023-08-17T02:01:09;101698.92;;;15.99;79.34
82418;BME280;72059;53.734;10.260;2023-08-17T02:03:36;101703.38;;;16.03;79.12
82418;BME280;72059;53.734;10.260;2023-08-17T02:06:04;101702.57;;;16.05;79.06
82418;BME280;72059;53.734;10.260;2023-08-17T02:08:33;101706.53;;;16.07;79.07
82418;BME280;72059;53.734;10.260;2023-08-17T02:11:01;101700.94;;;16.09;78.96
82418;BME280;72059;53.734;10.260;2023-08-17T02:13:29;101697.48;;;16.10;78.88
82418;BME280;72059;53.734;10.260;2023-08-17T02:15:56;101697.44;;;16.09;78.87
82418;BME280;72059;53.734;10.260;2023-08-17T02:18:23;101702.20;;;16.08;78.99
82418;BME280;72059;53.734;10.260;2023-08-17T02:20:51;101709.19;;;16.09;78.91
82418;BME280;72059;53.734;10.260;2023-08-17T02:23:18;101715.30;;;16.09;79.06
82418;BME280;72059;53.734;10.260;2023-08-17T02:25:46;101711.84;;;16.10;78.92
82418;BME280;72059;53.734;10.260;2023-08-17T02:28:13;101711.43;;;16.11;79.03
82418;BME280;72059;53.734;10.260;2023-08-17T02:30:41;101708.86;;;16.12;78.94
82418;BME280;72059;53.734;10.260;2023-08-17T02:33:08;101701.84;;;16.11;78.97
82418;BME280;72059;53.734;10.260;2023-08-17T02:35:35;101703.10;;;16.08;79.17
82418;BME280;72059;53.734;10.260;2023-08-17T02:38:03;101695.63;;;16.06;79.37
82418;BME280;72059;53.734;10.260;2023-08-17T02:40:30;101699.55;;;16.06;79.43
82418;BME280;72059;53.734;10.260;2023-08-17T02:42:58;101696.44;;;16.03;79.65
82418;BME280;72059;53.734;10.260;2023-08-17T02:45:25;101689.47;;;16.04;79.77
82418;BME280;72059;53.734;10.260;2023-08-17T02:47:53;101679.51;;;16.05;79.78
82418;BME280;72059;53.734;10.260;2023-08-17T02:50:20;101682.89;;;16.01;79.91
82418;BME280;72059;53.734;10.260;2023-08-17T02:52:47;101691.55;;;16.00;80.07
82418;BME280;72059;53.734;10.260;2023-08-17T02:55:15;101685.87;;;15.99;80.16
82418;BME280;72059;53.734;10.260;2023-08-17T02:57:42;101688.39;;;15.96;80.37
82418;BME280;72059;53.734;10.260;2023-08-17T03:00:10;101685.70;;;15.94;80.50
82418;BME280;72059;53.734;10.260;2023-08-17T03:02:38;101674.77;;;15.91;80.64
82418;BME280;72059;53.734;10.260;2023-08-17T03:05:05;101678.23;;;15.90;80.73
82418;BME280;72059;53.734;10.260;2023-08-17T03:07:33;101677.77;;;15.89;80.89
82418;BME280;72059;53.734;10.260;2023-08-17T03:10:00;101677.29;;;15.88;80.99
82418;BME280;72059;53.734;10.260;2023-08-17T03:12:27;101679.03;;;15.88;81.04
82418;BME280;72059;53.734;10.260;2023-08-17T03:14:55;101682.05;;;15.87;81.11
82418;BME280;72059;53.734;10.260;2023-08-17T03:17:22;101677.23;;;15.85;81.21
82418;BME280;72059;53.734;10.260;2023-08-17T03:19:50;101681.97;;;15.84;81.41
82418;BME280;72059;53.734;10.260;2023-08-17T03:22:17;101686.73;;;15.83;81.58
82418;BME280;72059;53.734;10.260;2023-08-17T03:24:44;101683.67;;;15.82;81.61
82418;BME280;72059;53.734;10.260;2023-08-17T03:27:12;101684.98;;;15.82;81.62
82418;BME280;72059;53.734;10.260;2023-08-17T03:29:39;101684.89;;;15.79;81.80
82418;BME280;72059;53.734;10.260;2023-08-17T03:32:07;101682.23;;;15.77;82.02
82418;BME280;72059;53.734;10.260;2023-08-17T03:34:34;101683.58;;;15.79;82.11
82418;BME280;72059;53.734;10.260;2023-08-17T03:37:03;101679.66;;;15.79;82.13
82418;BME280;72059;53.734;10.260;2023-08-17T03:39:30;101683.99;;;15.78;82.15
82418;BME280;72059;53.734;10.260;2023-08-17T03:41:58;101686.23;;;15.80;82.25
82418;BME280;72059;53.734;10.260;2023-08-17T03:44:25;101681.06;;;15.82;82.29
82418;BME280;72059;53.734;10.260;2023-08-17T03:46:53;101675.93;;;15.85;82.21
82418;BME280;72059;53.734;10.260;2023-08-17T03:49:20;101679.03;;;15.88;82.19
82418;BME280;72059;53.734;10.260;2023-08-17T03:51:47;101683.86;;;15.90;82.16
82418;BME280;72059;53.734;10.260;2023-08-17T03:54:15;101686.06;;;15.90;82.23
82418;BME280;72059;53.734;10.260;2023-08-17T03:56:42;101683.98;;;15.94;82.18
82418;BME280;72059;53.734;10.260;2023-08-17T03:59:10;101685.82;;;15.97;82.16
82418;BME280;72059;53.734;10.260;2023-08-17T04:01:37;101681.14;;;16.01;82.14
82418;BME280;72059;53.734;10.260;2023-08-17T04:04:04;101679.97;;;16.06;81.96
82418;BME280;72059;53.734;10.260;2023-08-17T04:06:32;101675.23;;;16.09;81.90
82418;BME280;72059;53.734;10.260;2023-08-17T04:08:59;101678.74;;;16.09;81.86
82418;BME280;72059;53.734;10.260;2023-08-17T04:11:27;101673.56;;;16.11;81.87
82418;BME280;72059;53.734;10.260;2023-08-17T04:13:54;101675.32;;;16.12;81.78
82418;BME280;72059;53.734;10.260;2023-08-17T04:16:21;101674.51;;;16.14;81.75
82418;BME280;72059;53.734;10.260;2023-08-17T04:18:49;101674.55;;;16.16;81.65
82418;BME280;72059;53.734;10.260;2023-08-17T04:21:16;101678.47;;;16.16;81.58
82418;BME280;72059;53.734;10.260;2023-08-17T04:23:44;101679.77;;;16.16;81.60
82418;BME280;72059;53.734;10.260;2023-08-17T04:26:11;101685.00;;;16.16;81.59
82418;BME280;72059;53.734;10.260;2023-08-17T04:28:39;101685.89;;;16.16;81.65
82418;BME280;72059;53.734;10.260;2023-08-17T04:31:06;101684.59;;;16.16;81.61
82418;BME280;72059;53.734;10.260;2023-08-17T04:33:33;101683.33;;;16.18;81.51
82418;BME280;72059;53.734;10.260;2023-08-17T04:36:01;101689.81;;;16.16;81.45
82418;BME280;72059;53.734;10.260;2023-08-17T04:38:28;101686.70;;;16.14;81.40
82418;BME280;72059;53.734;10.260;2023-08-17T04:40:56;101690.67;;;16.17;81.44
82418;BME280;72059;53.734;10.260;2023-08-17T04:43:23;101697.70;;;16.19;81.43
82418;BME280;72059;53.734;10.260;2023-08-17T04:45:50;101694.67;;;16.20;81.34
82418;BME280;72059;53.734;10.260;2023-08-17T04:48:18;101689.41;;;16.18;81.25
82418;BME280;72059;53.734;10.260;2023-08-17T04:50:45;101698.23;;;16.22;81.08
82418;BME280;72059;53.734;10.260;2023-08-17T04:53:13;101695.17;;;16.23;81.02
82418;BME280;72059;53.734;10.260;2023-08-17T04:55:40;101694.84;;;16.26;80.95
82418;BME280;72059;53.734;10.260;2023-08-17T04:58:08;101692.72;;;16.29;80.79
82418;BME280;72059;53.734;10.260;2023-08-17T05:00:35;101698.84;;;16.29;80.62
82418;BME280;72059;53.734;10.260;2023-08-17T05:03:03;101702.32;;;16.30;80.54
82418;BME280;72059;53.734;10.260;2023-08-17T05:05:30;101700.15;;;16.29;80.36
82418;BME280;72059;53.734;10.260;2023-08-17T05:07:58;101700.56;;;16.29;80.44
82418;BME280;72059;53.734;10.260;2023-08-17T05:10:25;101700.60;;;16.30;80.40
82418;BME280;72059;53.734;10.260;2023-08-17T05:12:54;101702.77;;;16.31;80.34
82418;BME280;72059;53.734;10.260;2023-08-17T05:15:21;101698.40;;;16.30;80.36
82418;BME280;72059;53.734;10.260;2023-08-17T05:17:49;101702.36;;;16.31;80.40
82418;BME280;72059;53.734;10.260;2023-08-17T05:20:17;101704.56;;;16.32;80.45
82418;BME280;72059;53.734;10.260;2023-08-17T05:22:45;101705.47;;;16.34;80.57
82418;BME280;72059;53.734;10.260;2023-08-17T05:25:12;101710.77;;;16.37;80.56
82418;BME280;72059;53.734;10.260;2023-08-17T05:27:40;101707.31;;;16.38;80.50
82418;BME280;72059;53.734;10.260;2023-08-17T05:30:08;101714.78;;;16.40;80.51
82418;BME280;72059;53.734;10.260;2023-08-17T05:32:35;101711.34;;;16.43;80.52
82418;BME280;72059;53.734;10.260;2023-08-17T05:35:03;101712.66;;;16.43;80.52
82418;BME280;72059;53.734;10.260;2023-08-17T05:37:30;101720.09;;;16.43;80.62
82418;BME280;72059;53.734;10.260;2023-08-17T05:39:57;101717.97;;;16.46;80.77
82418;BME280;72059;53.734;10.260;2023-08-17T05:42:25;101725.03;;;16.50;80.92
82418;BME280;72059;53.734;10.260;2023-08-17T05:44:52;101735.53;;;16.52;81.05
82418;BME280;72059;53.734;10.260;2023-08-17T05:47:20;101746.84;;;16.51;81.48
82418;BME280;72059;53.734;10.260;2023-08-17T05:49:47;101761.08;;;16.46;82.11
82418;BME280;72059;53.734;10.260;2023-08-17T05:52:14;101765.69;;;16.39;82.97
82418;BME280;72059;53.734;10.260;2023-08-17T05:54:42;101762.36;;;16.28;84.05
82418;BME280;72059;53.734;10.260;2023-08-17T05:57:09;101771.73;;;16.20;85.12
82418;BME280;72059;53.734;10.260;2023-08-17T05:59:37;101775.02;;;16.13;86.11
82418;BME280;72059;53.734;10.260;2023-08-17T06:02:04;101778.44;;;16.10;86.88
82418;BME280;72059;53.734;10.260;2023-08-17T06:04:32;101777.94;;;16.08;87.66
82418;BME280;72059;53.734;10.260;2023-08-17T06:07:00;101782.57;;;16.02;88.21
82418;BME280;72059;53.734;10.260;2023-08-17T06:09:27;101786.35;;;15.97;88.82
82418;BME280;72059;53.734;10.260;2023-08-17T06:11:55;101789.73;;;15.94;89.39
82418;BME280;72059;53.734;10.260;2023-08-17T06:14:22;101793.20;;;15.93;89.88
82418;BME280;72059;53.734;10.260;2023-08-17T06:16:49;101787.97;;;15.93;90.26
82418;BME280;72059;53.734;10.260;2023-08-17T06:19:17;101782.30;;;15.92;90.54
82418;BME280;72059;53.734;10.260;2023-08-17T06:21:44;101783.02;;;15.88;90.81
82418;BME280;72059;53.734;10.260;2023-08-17T06:24:12;101782.20;;;15.89;91.14
82418;BME280;72059;53.734;10.260;2023-08-17T06:26:39;101782.11;;;15.86;91.33
82418;BME280;72059;53.734;10.260;2023-08-17T06:29:07;101780.81;;;15.86;91.60
82418;BME280;72059;53.734;10.260;2023-08-17T06:31:34;101779.09;;;15.87;91.79
82418;BME280;72059;53.734;10.260;2023-08-17T06:34:01;101781.61;;;15.84;91.89
82418;BME280;72059;53.734;10.260;2023-08-17T06:36:32;101788.45;;;15.80;92.01
82418;BME280;72059;53.734;10.260;2023-08-17T06:39:00;101781.47;;;15.79;92.19
82418;BME280;72059;53.734;10.260;2023-08-17T06:41:27;101778.86;;;15.79;92.30
82418;BME280;72059;53.734;10.260;2023-08-17T06:43:54;101777.95;;;15.77;92.44
82418;BME280;72059;53.734;10.260;2023-08-17T06:46:22;101770.53;;;15.76;92.58
82418;BME280;72059;53.734;10.260;2023-08-17T06:48:50;101773.98;;;15.75;92.66
82418;BME280;72059;53.734;10.260;2023-08-17T06:51:18;101769.17;;;15.75;92.76
82418;BME280;72059;53.734;10.260;2023-08-17T06:53:45;101768.81;;;15.77;92.83
82418;BME280;72059;53.734;10.260;2023-08-17T06:56:13;101768.42;;;15.79;92.93
82418;BME280;72059;53.734;10.260;2023-08-17T06:58:40;101766.70;;;15.79;93.01
82418;BME280;72059;53.734;10.260;2023-08-17T07:01:08;101761.05;;;15.80;93.07
82418;BME280;72059;53.734;10.260;2023-08-17T07:03:35;101764.95;;;15.80;93.11
82418;BME280;72059;53.734;10.260;2023-08-17T07:06:03;101761.05;;;15.80;93.17
82418;BME280;72059;53.734;10.260;2023-08-17T07:08:30;101758.94;;;15.83;93.24
82418;BME280;72059;53.734;10.260;2023-08-17T07:10:59;101747.23;;;15.84;93.28
82418;BME280;72059;53.734;10.260;2023-08-17T07:13:26;101756.45;;;15.87;93.33
82418;BME280;72059;53.734;10.260;2023-08-17T07:15:54;101754.75;;;15.88;93.35
82418;BME280;72059;53.734;10.260;2023-08-17T07:18:21;101752.18;;;15.89;93.36
82418;BME280;72059;53.734;10.260;2023-08-17T07:20:49;101750.83;;;15.88;93.38
82418;BME280;72059;53.734;10.260;2023-08-17T07:23:16;101756.91;;;15.88;93.39
82418;BME280;72059;53.734;10.260;2023-08-17T07:25:43;101753.58;;;15.92;93.43
82418;BME280;72059;53.734;10.260;2023-08-17T07:28:11;101744.53;;;15.96;93.46
82418;BME280;72059;53.734;10.260;2023-08-17T07:30:38;101745.02;;;15.97;93.46
82418;BME280;72059;53.734;10.260;2023-08-17T07:33:06;101744.66;;;16.00;93.47
82418;BME280;72059;53.734;10.260;2023-08-17T07:35:33;101744.35;;;16.05;93.47
82418;BME280;72059;53.734;10.260;2023-08-17T07:38:00;101745.34;;;16.09;93.48
82418;BME280;72059;53.734;10.260;2023-08-17T07:40:28;101744.98;;;16.13;93.48
82418;BME280;72059;53.734;10.260;2023-08-17T07:42:55;101742.73;;;16.09;93.43
82418;BME280;72059;53.734;10.260;2023-08-17T07:45:23;101743.58;;;16.08;93.42
82418;BME280;72059;53.734;10.260;2023-08-17T07:47:50;101747.51;;;16.10;93.44
82418;BME280;72059;53.734;10.260;2023-08-17T07:50:18;101743.63;;;16.11;93.42
82418;BME280;72059;53.734;10.260;2023-08-17T07:52:46;101744.62;;;16.15;93.45
82418;BME280;72059;53.734;10.260;2023-08-17T07:55:13;101753.90;;;16.21;93.45
82418;BME280;72059;53.734;10.260;2023-08-17T07:57:41;101747.90;;;16.24;93.44
82418;BME280;72059;53.734;10.260;2023-08-17T08:00:08;101743.17;;;16.26;93.45
82418;BME280;72059;53.734;10.260;2023-08-17T08:02:36;101742.86;;;16.31;93.46
82418;BME280;72059;53.734;10.260;2023-08-17T08:05:03;101743.39;;;16.36;93.46
82418;BME280;72059;53.734;10.260;2023-08-17T08:07:31;101737.40;;;16.40;93.45
82418;BME280;72059;53.734;10.260;2023-08-17T08:09:58;101740.01;;;16.40;93.39
82418;BME280;72059;53.734;10.260;2023-08-17T08:12:26;101746.95;;;16.38;93.39
82418;BME280;72059;53.734;10.260;2023-08-17T08:14:53;101750.05;;;16.40;93.41
82418;BME280;72059;53.734;10.260;2023-08-17T08:17:21;101750.59;;;16.44;93.44
82418;BME280;72059;53.734;10.260;2023-08-17T08:19:48;101752.79;;;16.45;93.47
82418;BME280;72059;53.734;10.260;2023-08-17T08:22:17;101743.36;;;16.52;93.50
82418;BME280;72059;53.734;10.260;2023-08-17T08:24:44;101744.02;;;16.61;93.49
82418;BME280;72059;53.734;10.260;2023-08-17T08:27:12;101743.58;;;16.61;93.44
82418;BME280;72059;53.734;10.260;2023-08-17T08:29:39;101745.73;;;16.60;93.45
82418;BME280;72059;53.734;10.260;2023-08-17T08:32:07;101748.39;;;16.62;93.47
82418;BME280;72059;53.734;10.260;2023-08-17T08:34:34;101750.16;;;16.63;93.53
82418;BME280;72059;53.734;10.260;2023-08-17T08:37:02;101749.30;;;16.64;93.54
82418;BME280;72059;53.734;10.260;2023-08-17T08:39:29;101748.84;;;16.63;93.55
82418;BME280;72059;53.734;10.260;2023-08-17T08:41:57;101748.44;;;16.63;93.55
82418;BME280;72059;53.734;10.260;2023-08-17T08:44:25;101746.72;;;16.65;93.56
82418;BME280;72059;53.734;10.260;2023-08-17T08:46:54;101742.44;;;16.67;93.54
82418;BME280;72059;53.734;10.260;2023-08-17T08:49:23;101748.77;;;16.60;93.46
82418;BME280;72059;53.734;10.260;2023-08-17T08:51:52;101742.91;;;16.51;93.46
82418;BME280;72059;53.734;10.260;2023-08-17T08:54:21;101744.67;;;16.52;93.52
82418;BME280;72059;53.734;10.260;2023-08-17T08:56:51;101746.97;;;16.57;93.57
82418;BME280;72059;53.734;10.260;2023-08-17T08:59:20;101747.09;;;16.62;93.59
82418;BME280;72059;53.734;10.260;2023-08-17T09:01:48;101740.39;;;16.55;93.56
82418;BME280;72059;53.734;10.260;2023-08-17T09:04:16;101745.23;;;16.40;93.40
82418;BME280;72059;53.734;10.260;2023-08-17T09:06:44;101745.38;;;16.28;93.40
82418;BME280;72059;53.734;10.260;2023-08-17T09:09:14;101745.75;;;16.09;93.08
82418;BME280;72059;53.734;10.260;2023-08-17T09:11:43;101748.81;;;15.93;92.99
82418;BME280;72059;53.734;10.260;2023-08-17T09:14:10;101742.07;;;15.70;92.94
82418;BME280;72059;53.734;10.260;2023-08-17T09:16:39;101743.64;;;15.64;92.98
82418;BME280;72059;53.734;10.260;2023-08-17T09:19:06;101739.69;;;15.63;93.08
82418;BME280;72059;53.734;10.260;2023-08-17T09:21:34;101744.14;;;15.67;93.06
82418;BME280;72059;53.734;10.260;2023-08-17T09:24:01;101739.46;;;15.70;93.04
82418;BME280;72059;53.734;10.260;2023-08-17T09:26:32;101739.35;;;15.83;93.07
82418;BME280;72059;53.734;10.260;2023-08-17T09:29:00;101741.43;;;15.94;93.11
82418;BME280;72059;53.734;10.260;2023-08-17T09:31:30;101743.40;;;16.02;93.09
82418;BME280;72059;53.734;10.260;2023-08-17T09:33:58;101739.94;;;16.03;93.05
82418;BME280;72059;53.734;10.260;2023-08-17T09:36:27;101741.83;;;16.09;93.04
82418;BME280;72059;53.734;10.260;2023-08-17T09:38:55;101740.34;;;16.18;92.98
82418;BME280;72059;53.734;10.260;2023-08-17T09:41:23;101743.62;;;16.27;92.90
82418;BME280;72059;53.734;10.260;2023-08-17T09:43:50;101737.31;;;16.37;92.83
82418;BME280;72059;53.734;10.260;2023-08-17T09:46:18;101741.77;;;16.41;92.78
82418;BME280;72059;53.734;10.260;2023-08-17T09:48:45;101734.05;;;16.45;92.80
82418;BME280;72059;53.734;10.260;2023-08-17T09:51:17;101736.47;;;16.55;92.83
82418;BME280;72059;53.734;10.260;2023-08-17T09:53:44;101729.61;;;16.59;92.77
82418;BME280;72059;53.734;10.260;2023-08-17T09:56:12;101728.22;;;16.56;92.70
82418;BME280;72059;53.734;10.260;2023-08-17T09:58:40;101731.64;;;16.53;92.71
82418;BME280;72059;53.734;10.260;2023-08-17T10:01:08;101734.17;;;16.50;92.73
82418;BME280;72059;53.734;10.260;2023-08-17T10:03:38;101723.15;;;16.44;92.75
82418;BME280;72059;53.734;10.260;2023-08-17T10:06:09;101736.53;;;16.39;92.78
82418;BME280;72059;53.734;10.260;2023-08-17T10:08:46;101732.13;;;16.38;92.80
82418;BME280;72059;53.734;10.260;2023-08-17T10:11:19;101728.70;;;16.39;92.84
82418;BME280;72059;53.734;10.260;2023-08-17T10:13:52;101725.80;;;16.46;92.86
82418;BME280;72059;53.734;10.260;2023-08-17T10:16:23;101723.31;;;16.51;92.75
82418;BME280;72059;53.734;10.260;2023-08-17T10:18:59;101720.58;;;16.46;92.60
82418;BME280;72059;53.734;10.260;2023-08-17T10:21:56;101726.13;;;16.42;92.57
82418;BME280;72059;53.734;10.260;2023-08-17T10:24:23;101722.89;;;16.34;92.52
82418;BME280;72059;53.734;10.260;2023-08-17T10:26:51;101734.97;;;16.30;92.54
82418;BME280;72059;53.734;10.260;2023-08-17T10:29:22;101743.98;;;16.25;92.48
82418;BME280;72059;53.734;10.260;2023-08-17T10:31:50;101747.73;;;16.17;92.44
82418;BME280;72059;53.734;10.260;2023-08-17T10:34:18;101753.71;;;16.13;92.47
82418;BME280;72059;53.734;10.260;2023-08-17T10:36:46;101749.84;;;16.15;92.50
82418;BME280;72059;53.734;10.260;2023-08-17T10:39:23;101747.68;;;16.16;92.49
82418;BME280;72059;53.734;10.260;2023-08-17T10:41:52;101747.37;;;16.21;92.45
82418;BME280;72059;53.734;10.260;2023-08-17T10:44:38;101736.09;;;16.22;92.35
82418;BME280;72059;53.734;10.260;2023-08-17T10:47:23;101724.44;;;16.27;92.25
82418;BME280;72059;53.734;10.260;2023-08-17T10:49:52;101712.69;;;16.27;92.16
82418;BME280;72059;53.734;10.260;2023-08-17T10:52:25;101718.31;;;16.25;92.12
82418;BME280;72059;53.734;10.260;2023-08-17T10:54:53;101710.16;;;16.30;92.15
82418;BME280;72059;53.734;10.260;2023-08-17T10:57:29;101711.14;;;16.34;92.26
82418;BME280;72059;53.734;10.260;2023-08-17T11:00:21;101702.41;;;16.33;92.33
82418;BME280;72059;53.734;10.260;2023-08-17T11:02:54;101702.36;;;16.31;92.38
82418;BME280;72059;53.734;10.260;2023-08-17T11:05:39;101697.54;;;16.29;92.49
82418;BME280;72059;53.734;10.260;2023-08-17T11:08:08;101696.19;;;16.28;92.58
82418;BME280;72059;53.734;10.260;2023-08-17T11:10:36;101700.15;;;16.29;92.73
82418;BME280;72059;53.734;10.260;2023-08-17T11:13:05;101701.74;;;16.24;92.81
82418;BME280;72059;53.734;10.260;2023-08-17T11:15:43;101699.05;;;16.21;92.98
82418;BME280;72059;53.734;10.260;2023-08-17T11:18:11;101692.79;;;16.14;93.05
82418;BME280;72059;53.734;10.260;2023-08-17T11:20:40;101693.47;;;16.07;93.17
82418;BME280;72059;53.734;10.260;2023-08-17T11:23:09;101691.98;;;15.99;93.26
82418;BME280;72059;53.734;10.260;2023-08-17T11:25:38;101690.91;;;15.92;93.34
82418;BME280;72059;53.734;10.260;2023-08-17T11:28:07;101687.32;;;15.89;93.44
82418;BME280;72059;53.734;10.260;2023-08-17T11:30:35;101683.72;;;15.84;93.46
82418;BME280;72059;53.734;10.260;2023-08-17T11:33:05;101697.13;;;15.81;93.53
82418;BME280;72059;53.734;10.260;2023-08-17T11:35:33;101698.34;;;15.77;93.60
82418;BME280;72059;53.734;10.260;2023-08-17T11:38:01;101696.44;;;15.71;93.67
82418;BME280;72059;53.734;10.260;2023-08-17T11:40:30;101694.23;;;15.71;93.75
82418;BME280;72059;53.734;10.260;2023-08-17T11:42:57;101701.09;;;15.67;93.72
82418;BME280;72059;53.734;10.260;2023-08-17T11:45:25;101697.56;;;15.65;93.74
82418;BME280;72059;53.734;10.260;2023-08-17T11:47:52;101704.02;;;15.78;93.78
82418;BME280;72059;53.734;10.260;2023-08-17T11:50:20;101700.24;;;15.84;93.72
82418;BME280;72059;53.734;10.260;2023-08-17T11:52:47;101707.13;;;15.80;93.60
82418;BME280;72059;53.734;10.260;2023-08-17T11:55:16;101702.85;;;15.84;93.55
82418;BME280;72059;53.734;10.260;2023-08-17T11:57:46;101697.27;;;15.86;93.45
82418;BME280;72059;53.734;10.260;2023-08-17T12:00:20;101704.05;;;15.96;93.35
82418;BME280;72059;53.734;10.260;2023-08-17T12:02:50;101702.74;;;16.12;93.28
82418;BME280;72059;53.734;10.260;2023-08-17T12:05:22;101708.36;;;16.27;93.18
82418;BME280;72059;53.734;10.260;2023-08-17T12:07:54;101698.66;;;16.41;93.05
82418;BME280;72059;53.734;10.260;2023-08-17T12:10:22;101707.52;;;16.46;92.87
82418;BME280;72059;53.734;10.260;2023-08-17T12:12:49;101717.52;;;16.47;92.81
82418;BME280;72059;53.734;10.260;2023-08-17T12:15:18;101718.00;;;16.48;92.80
82418;BME280;72059;53.734;10.260;2023-08-17T12:17:49;101718.91;;;16.50;92.85
82418;BME280;72059;53.734;10.260;2023-08-17T12:20:19;101713.52;;;16.61;92.95
82418;BME280;72059;53.734;10.260;2023-08-17T12:22:47;101696.05;;;16.58;92.92
82418;BME280;72059;53.734;10.260;2023-08-17T12:25:15;101699.55;;;16.59;92.99
82418;BME280;72059;53.734;10.260;2023-08-17T12:27:42;101691.91;;;16.49;92.99
82418;BME280;72059;53.734;10.260;2023-08-17T12:30:23;101688.78;;;16.47;93.13
82418;BME280;72059;53.734;10.260;2023-08-17T12:32:43;101674.81;;;16.44;93.26
82418;BME280;72059;53.734;10.260;2023-08-17T12:35:11;101667.63;;;16.53;93.41
82418;BME280;72059;53.734;10.260;2023-08-17T12:37:38;101668.67;;;16.62;93.52
82418;BME280;72059;53.734;10.260;2023-08-17T12:40:06;101665.96;;;16.76;93.60
82418;BME280;72059;53.734;10.260;2023-08-17T12:42:34;101674.03;;;16.87;93.62
82418;BME280;72059;53.734;10.260;2023-08-17T12:45:02;101677.73;;;16.97;93.65
82418;BME280;72059;53.734;10.260;2023-08-17T12:47:29;101686.17;;;17.04;93.64
82418;BME280;72059;53.734;10.260;2023-08-17T12:49:56;101698.05;;;17.09;93.60